sensor_id;sensor_type;location;lat;lon;timestamp;P1;durP1;ratioP1;P2;durP2;ratioP2
32521;SDS011;18963;51.504;5.316;2023-08-07T00:02:01;10.77;;;2.08;;
32521;SDS011;18963;51.504;5.316;2023-08-07T00:04:27;8.60;;;1.95;;
32521;SDS011;18963;51.504;5.316;2023-08-07T00:06:53;6.25;;;2.10;;
32521;SDS011;18963;51.504;5.316;2023-08-07T00:09:18;7.22;;;2.42;;
32521;SDS011;18963;51.504;5.316;2023-08-07T00:11:44;6.90;;;1.85;;
32521;SDS011;18963;51.504;5.316;2023-08-07T00:14:09;6.95;;;2.08;;
32521;SDS011;18963;51.504;5.316;2023-08-07T00:16:35;5.93;;;1.85;;
32521;SDS011;18963;51.504;5.316;2023-08-07T00:19:01;4.93;;;1.80;;
32521;SDS011;18963;51.504;5.316;2023-08-07T00:21:27;5.70;;;1.70;;
32521;SDS011;18963;51.504;5.316;2023-08-07T00:23:53;9.85;;;1.73;;
32521;SDS011;18963;51.504;5.316;2023-08-07T00:26:19;7.60;;;3.13;;
32521;SDS011;18963;51.504;5.316;2023-08-07T00:28:45;10.85;;;2.40;;
32521;SDS011;18963;51.504;5.316;2023-08-07T00:31:11;6.80;;;2.20;;
32521;SDS011;18963;51.504;5.316;2023-08-07T00:33:37;7.63;;;1.45;;
32521;SDS011;18963;51.504;5.316;2023-08-07T00:36:03;9.07;;;1.67;;
32521;SDS011;18963;51.504;5.316;2023-08-07T00:38:29;7.35;;;1.85;;
32521;SDS011;18963;51.504;5.316;2023-08-07T00:40:54;7.88;;;2.28;;
32521;SDS011;18963;51.504;5.316;2023-08-07T00:43:20;9.52;;;1.90;;
32521;SDS011;18963;51.504;5.316;2023-08-07T00:45:46;4.75;;;1.40;;
32521;SDS011;18963;51.504;5.316;2023-08-07T00:48:12;6.47;;;1.90;;
32521;SDS011;18963;51.504;5.316;2023-08-07T00:50:40;11.38;;;2.25;;
32521;SDS011;18963;51.504;5.316;2023-08-07T00:53:07;5.28;;;1.63;;
32521;SDS011;18963;51.504;5.316;2023-08-07T00:55:33;4.28;;;1.58;;
32521;SDS011;18963;51.504;5.316;2023-08-07T00:57:59;7.72;;;2.22;;
32521;SDS011;18963;51.504;5.316;2023-08-07T01:00:25;6.82;;;1.83;;
32521;SDS011;18963;51.504;5.316;2023-08-07T01:02:53;7.15;;;1.60;;
32521;SDS011;18963;51.504;5.316;2023-08-07T01:05:20;5.88;;;1.85;;
32521;SDS011;18963;51.504;5.316;2023-08-07T01:07:47;9.07;;;2.70;;
32521;SDS011;18963;51.504;5.316;2023-08-07T01:10:13;7.63;;;2.42;;
32521;SDS011;18963;51.504;5.316;2023-08-07T01:12:45;4.00;;;1.52;;
32521;SDS011;18963;51.504;5.316;2023-08-07T01:15:22;5.47;;;1.63;;
32521;SDS011;18963;51.504;5.316;2023-08-07T01:17:53;8.38;;;1.88;;
32521;SDS011;18963;51.504;5.316;2023-08-07T01:20:19;7.97;;;1.90;;
32521;SDS011;18963;51.504;5.316;2023-08-07T01:22:45;5.57;;;1.70;;
32521;SDS011;18963;51.504;5.316;2023-08-07T01:25:10;5.63;;;1.50;;
32521;SDS011;18963;51.504;5.316;2023-08-07T01:27:41;7.45;;;1.75;;
32521;SDS011;18963;51.504;5.316;2023-08-07T01:30:19;7.88;;;2.20;;
32521;SDS011;18963;51.504;5.316;2023-08-07T01:35:35;9.05;;;2.80;;
32521;SDS011;18963;51.504;5.316;2023-08-07T01:38:05;10.77;;;2.25;;
32521;SDS011;18963;51.504;5.316;2023-08-07T01:40:32;6.65;;;2.03;;
32521;SDS011;18963;51.504;5.316;2023-08-07T01:42:59;11.10;;;2.22;;
32521;SDS011;18963;51.504;5.316;2023-08-07T01:45:26;9.38;;;2.50;;
32521;SDS011;18963;51.504;5.316;2023-08-07T01:47:53;5.80;;;2.17;;
32521;SDS011;18963;51.504;5.316;2023-08-07T01:50:19;6.50;;;2.15;;
32521;SDS011;18963;51.504;5.316;2023-08-07T01:52:48;8.55;;;2.50;;
32521;SDS011;18963;51.504;5.316;2023-08-07T01:55:14;11.05;;;2.00;;
32521;SDS011;18963;51.504;5.316;2023-08-07T01:57:43;6.60;;;1.77;;
32521;SDS011;18963;51.504;5.316;2023-08-07T02:00:09;8.10;;;1.50;;
32521;SDS011;18963;51.504;5.316;2023-08-07T02:02:36;6.90;;;1.90;;
32521;SDS011;18963;51.504;5.316;2023-08-07T02:05:02;4.38;;;1.55;;
32521;SDS011;18963;51.504;5.316;2023-08-07T02:07:29;8.15;;;2.03;;
32521;SDS011;18963;51.504;5.316;2023-08-07T02:09:55;7.28;;;1.70;;
32521;SDS011;18963;51.504;5.316;2023-08-07T02:12:20;6.05;;;1.50;;
32521;SDS011;18963;51.504;5.316;2023-08-07T02:14:46;12.57;;;2.33;;
32521;SDS011;18963;51.504;5.316;2023-08-07T02:17:11;8.65;;;2.40;;
32521;SDS011;18963;51.504;5.316;2023-08-07T02:19:37;7.70;;;1.58;;
32521;SDS011;18963;51.504;5.316;2023-08-07T02:22:02;8.40;;;1.88;;
32521;SDS011;18963;51.504;5.316;2023-08-07T02:24:28;8.45;;;1.90;;
32521;SDS011;18963;51.504;5.316;2023-08-07T02:26:54;7.60;;;1.83;;
32521;SDS011;18963;51.504;5.316;2023-08-07T02:29:19;12.98;;;1.88;;
32521;SDS011;18963;51.504;5.316;2023-08-07T02:31:45;8.95;;;2.42;;
32521;SDS011;18963;51.504;5.316;2023-08-07T02:34:10;5.68;;;1.90;;
32521;SDS011;18963;51.504;5.316;2023-08-07T02:36:36;6.57;;;1.63;;
32521;SDS011;18963;51.504;5.316;2023-08-07T02:39:01;8.95;;;1.83;;
32521;SDS011;18963;51.504;5.316;2023-08-07T02:41:27;7.97;;;1.80;;
32521;SDS011;18963;51.504;5.316;2023-08-07T02:43:53;8.35;;;1.70;;
32521;SDS011;18963;51.504;5.316;2023-08-07T02:46:18;6.55;;;2.10;;
32521;SDS011;18963;51.504;5.316;2023-08-07T02:48:44;8.35;;;2.40;;
32521;SDS011;18963;51.504;5.316;2023-08-07T02:51:09;4.45;;;1.58;;
32521;SDS011;18963;51.504;5.316;2023-08-07T02:53:35;10.60;;;2.35;;
32521;SDS011;18963;51.504;5.316;2023-08-07T02:56:01;7.88;;;1.85;;
32521;SDS011;18963;51.504;5.316;2023-08-07T02:58:26;6.82;;;2.30;;
32521;SDS011;18963;51.504;5.316;2023-08-07T03:00:52;6.15;;;1.75;;
32521;SDS011;18963;51.504;5.316;2023-08-07T03:03:17;4.30;;;1.77;;
32521;SDS011;18963;51.504;5.316;2023-08-07T03:05:50;12.23;;;2.38;;
32521;SDS011;18963;51.504;5.316;2023-08-07T03:08:16;8.48;;;2.20;;
32521;SDS011;18963;51.504;5.316;2023-08-07T03:10:41;8.35;;;2.40;;
32521;SDS011;18963;51.504;5.316;2023-08-07T03:13:07;7.63;;;2.00;;
32521;SDS011;18963;51.504;5.316;2023-08-07T03:15:33;7.35;;;1.95;;
32521;SDS011;18963;51.504;5.316;2023-08-07T03:17:58;6.50;;;2.03;;
32521;SDS011;18963;51.504;5.316;2023-08-07T03:20:24;8.00;;;2.03;;
32521;SDS011;18963;51.504;5.316;2023-08-07T03:22:49;10.52;;;2.35;;
32521;SDS011;18963;51.504;5.316;2023-08-07T03:25:15;6.68;;;1.85;;
32521;SDS011;18963;51.504;5.316;2023-08-07T03:27:40;8.32;;;2.28;;
32521;SDS011;18963;51.504;5.316;2023-08-07T03:30:06;10.10;;;2.17;;
32521;SDS011;18963;51.504;5.316;2023-08-07T03:32:32;8.15;;;2.42;;
32521;SDS011;18963;51.504;5.316;2023-08-07T03:34:57;6.30;;;1.90;;
32521;SDS011;18963;51.504;5.316;2023-08-07T03:37:23;10.88;;;2.50;;
32521;SDS011;18963;51.504;5.316;2023-08-07T03:39:49;8.27;;;2.15;;
32521;SDS011;18963;51.504;5.316;2023-08-07T03:42:15;6.53;;;2.20;;
32521;SDS011;18963;51.504;5.316;2023-08-07T03:44:40;9.98;;;2.67;;
32521;SDS011;18963;51.504;5.316;2023-08-07T03:47:06;11.88;;;2.17;;
32521;SDS011;18963;51.504;5.316;2023-08-07T03:49:32;6.93;;;2.30;;
32521;SDS011;18963;51.504;5.316;2023-08-07T03:51:57;8.38;;;2.30;;
32521;SDS011;18963;51.504;5.316;2023-08-07T03:54:24;10.75;;;2.67;;
32521;SDS011;18963;51.504;5.316;2023-08-07T03:56:50;9.02;;;2.50;;
32521;SDS011;18963;51.504;5.316;2023-08-07T03:59:16;8.00;;;2.08;;
32521;SDS011;18963;51.504;5.316;2023-08-07T04:01:42;11.35;;;2.53;;
32521;SDS011;18963;51.504;5.316;2023-08-07T04:04:07;7.93;;;2.42;;
32521;SDS011;18963;51.504;5.316;2023-08-07T04:06:33;8.02;;;2.10;;
32521;SDS011;18963;51.504;5.316;2023-08-07T04:08:58;8.55;;;2.33;;
32521;SDS011;18963;51.504;5.316;2023-08-07T04:11:24;6.85;;;2.00;;
32521;SDS011;18963;51.504;5.316;2023-08-07T04:13:49;7.45;;;2.10;;
32521;SDS011;18963;51.504;5.316;2023-08-07T04:16:15;6.93;;;2.05;;
32521;SDS011;18963;51.504;5.316;2023-08-07T04:18:41;8.52;;;2.72;;
32521;SDS011;18963;51.504;5.316;2023-08-07T04:21:07;9.63;;;2.60;;
32521;SDS011;18963;51.504;5.316;2023-08-07T04:23:33;7.07;;;2.00;;
32521;SDS011;18963;51.504;5.316;2023-08-07T04:25:59;11.32;;;2.30;;
32521;SDS011;18963;51.504;5.316;2023-08-07T04:28:25;8.40;;;2.55;;
32521;SDS011;18963;51.504;5.316;2023-08-07T04:30:52;9.73;;;2.15;;
32521;SDS011;18963;51.504;5.316;2023-08-07T04:33:18;7.10;;;1.85;;
32521;SDS011;18963;51.504;5.316;2023-08-07T04:35:44;10.38;;;2.38;;
32521;SDS011;18963;51.504;5.316;2023-08-07T04:38:11;5.72;;;2.63;;
32521;SDS011;18963;51.504;5.316;2023-08-07T04:40:44;6.45;;;2.47;;
32521;SDS011;18963;51.504;5.316;2023-08-07T04:43:10;9.50;;;2.28;;
32521;SDS011;18963;51.504;5.316;2023-08-07T04:45:36;8.13;;;2.10;;
32521;SDS011;18963;51.504;5.316;2023-08-07T04:48:03;8.05;;;1.60;;
32521;SDS011;18963;51.504;5.316;2023-08-07T04:50:29;8.48;;;2.28;;
32521;SDS011;18963;51.504;5.316;2023-08-07T04:52:54;7.07;;;2.05;;
32521;SDS011;18963;51.504;5.316;2023-08-07T04:55:20;8.25;;;2.03;;
32521;SDS011;18963;51.504;5.316;2023-08-07T04:57:46;7.60;;;1.85;;
32521;SDS011;18963;51.504;5.316;2023-08-07T05:00:12;4.93;;;1.70;;
32521;SDS011;18963;51.504;5.316;2023-08-07T05:02:38;9.45;;;2.33;;
32521;SDS011;18963;51.504;5.316;2023-08-07T05:05:04;6.18;;;2.22;;
32521;SDS011;18963;51.504;5.316;2023-08-07T05:07:32;6.13;;;2.20;;
32521;SDS011;18963;51.504;5.316;2023-08-07T05:09:59;7.38;;;2.25;;
32521;SDS011;18963;51.504;5.316;2023-08-07T05:12:25;9.07;;;3.13;;
32521;SDS011;18963;51.504;5.316;2023-08-07T05:14:51;7.95;;;1.52;;
32521;SDS011;18963;51.504;5.316;2023-08-07T05:17:17;6.50;;;1.65;;
32521;SDS011;18963;51.504;5.316;2023-08-07T05:19:42;8.32;;;1.75;;
32521;SDS011;18963;51.504;5.316;2023-08-07T05:22:08;5.82;;;2.05;;
32521;SDS011;18963;51.504;5.316;2023-08-07T05:24:33;11.15;;;1.85;;
32521;SDS011;18963;51.504;5.316;2023-08-07T05:27:04;8.05;;;2.28;;
32521;SDS011;18963;51.504;5.316;2023-08-07T05:29:33;5.55;;;1.95;;
32521;SDS011;18963;51.504;5.316;2023-08-07T05:31:59;9.05;;;3.00;;
32521;SDS011;18963;51.504;5.316;2023-08-07T05:34:25;4.78;;;2.05;;
32521;SDS011;18963;51.504;5.316;2023-08-07T05:36:51;6.70;;;1.90;;
32521;SDS011;18963;51.504;5.316;2023-08-07T05:39:16;7.80;;;2.38;;
32521;SDS011;18963;51.504;5.316;2023-08-07T05:41:42;9.00;;;2.03;;
32521;SDS011;18963;51.504;5.316;2023-08-07T05:44:07;7.93;;;2.05;;
32521;SDS011;18963;51.504;5.316;2023-08-07T05:46:33;5.45;;;1.70;;
32521;SDS011;18963;51.504;5.316;2023-08-07T05:48:58;11.90;;;2.30;;
32521;SDS011;18963;51.504;5.316;2023-08-07T05:51:24;7.68;;;2.15;;
32521;SDS011;18963;51.504;5.316;2023-08-07T05:53:49;4.78;;;1.90;;
32521;SDS011;18963;51.504;5.316;2023-08-07T05:56:15;8.48;;;2.10;;
32521;SDS011;18963;51.504;5.316;2023-08-07T05:58:41;6.72;;;1.80;;
32521;SDS011;18963;51.504;5.316;2023-08-07T06:01:07;8.85;;;2.15;;
32521;SDS011;18963;51.504;5.316;2023-08-07T06:03:32;10.52;;;2.25;;
32521;SDS011;18963;51.504;5.316;2023-08-07T06:05:59;8.65;;;1.60;;
32521;SDS011;18963;51.504;5.316;2023-08-07T06:08:24;5.20;;;1.60;;
32521;SDS011;18963;51.504;5.316;2023-08-07T06:10:50;7.13;;;1.83;;
32521;SDS011;18963;51.504;5.316;2023-08-07T06:13:15;8.65;;;1.80;;
32521;SDS011;18963;51.504;5.316;2023-08-07T06:15:41;5.80;;;1.77;;
32521;SDS011;18963;51.504;5.316;2023-08-07T06:18:06;4.10;;;1.52;;
32521;SDS011;18963;51.504;5.316;2023-08-07T06:20:33;7.18;;;1.80;;
32521;SDS011;18963;51.504;5.316;2023-08-07T06:22:59;5.95;;;1.65;;
32521;SDS011;18963;51.504;5.316;2023-08-07T06:25:24;4.70;;;1.30;;
32521;SDS011;18963;51.504;5.316;2023-08-07T06:27:50;6.80;;;2.53;;
32521;SDS011;18963;51.504;5.316;2023-08-07T06:30:15;7.40;;;1.48;;
32521;SDS011;18963;51.504;5.316;2023-08-07T06:32:41;5.43;;;1.40;;
32521;SDS011;18963;51.504;5.316;2023-08-07T06:35:07;7.88;;;2.22;;
32521;SDS011;18963;51.504;5.316;2023-08-07T06:37:33;7.25;;;1.58;;
32521;SDS011;18963;51.504;5.316;2023-08-07T06:39:58;4.20;;;1.40;;
32521;SDS011;18963;51.504;5.316;2023-08-07T06:42:24;5.75;;;1.55;;
32521;SDS011;18963;51.504;5.316;2023-08-07T06:44:50;5.75;;;1.55;;
32521;SDS011;18963;51.504;5.316;2023-08-07T06:47:15;5.57;;;1.38;;
32521;SDS011;18963;51.504;5.316;2023-08-07T06:49:41;4.47;;;2.08;;
32521;SDS011;18963;51.504;5.316;2023-08-07T06:52:06;7.38;;;1.48;;
32521;SDS011;18963;51.504;5.316;2023-08-07T06:54:32;6.10;;;1.63;;
32521;SDS011;18963;51.504;5.316;2023-08-07T06:56:57;6.88;;;1.40;;
32521;SDS011;18963;51.504;5.316;2023-08-07T06:59:23;4.47;;;1.63;;
32521;SDS011;18963;51.504;5.316;2023-08-07T07:01:49;5.85;;;1.83;;
32521;SDS011;18963;51.504;5.316;2023-08-07T07:04:14;8.60;;;1.55;;
32521;SDS011;18963;51.504;5.316;2023-08-07T07:06:40;4.47;;;1.65;;
32521;SDS011;18963;51.504;5.316;2023-08-07T07:09:05;7.63;;;1.73;;
32521;SDS011;18963;51.504;5.316;2023-08-07T07:11:31;9.02;;;1.90;;
32521;SDS011;18963;51.504;5.316;2023-08-07T07:13:56;7.18;;;1.42;;
32521;SDS011;18963;51.504;5.316;2023-08-07T07:16:22;9.82;;;1.40;;
32521;SDS011;18963;51.504;5.316;2023-08-07T07:18:49;7.80;;;1.38;;
32521;SDS011;18963;51.504;5.316;2023-08-07T07:21:15;8.32;;;1.48;;
32521;SDS011;18963;51.504;5.316;2023-08-07T07:23:41;6.97;;;1.50;;
32521;SDS011;18963;51.504;5.316;2023-08-07T07:26:07;6.60;;;1.63;;
32521;SDS011;18963;51.504;5.316;2023-08-07T07:28:32;3.33;;;1.25;;
32521;SDS011;18963;51.504;5.316;2023-08-07T07:30:58;7.38;;;1.92;;
32521;SDS011;18963;51.504;5.316;2023-08-07T07:33:23;5.75;;;1.88;;
32521;SDS011;18963;51.504;5.316;2023-08-07T07:35:49;5.50;;;1.20;;
32521;SDS011;18963;51.504;5.316;2023-08-07T07:38:14;4.97;;;1.35;;
32521;SDS011;18963;51.504;5.316;2023-08-07T07:40:41;4.63;;;1.23;;
32521;SDS011;18963;51.504;5.316;2023-08-07T07:43:07;7.72;;;1.38;;
32521;SDS011;18963;51.504;5.316;2023-08-07T07:45:33;5.10;;;1.40;;
32521;SDS011;18963;51.504;5.316;2023-08-07T07:48:00;4.65;;;1.20;;
32521;SDS011;18963;51.504;5.316;2023-08-07T07:50:26;7.65;;;2.38;;
32521;SDS011;18963;51.504;5.316;2023-08-07T07:52:52;6.72;;;1.50;;
32521;SDS011;18963;51.504;5.316;2023-08-07T07:55:18;7.82;;;1.30;;
32521;SDS011;18963;51.504;5.316;2023-08-07T07:57:43;5.65;;;1.70;;
32521;SDS011;18963;51.504;5.316;2023-08-07T08:00:09;5.90;;;1.17;;
32521;SDS011;18963;51.504;5.316;2023-08-07T08:02:36;8.93;;;1.60;;
32521;SDS011;18963;51.504;5.316;2023-08-07T08:05:02;8.75;;;1.70;;
32521;SDS011;18963;51.504;5.316;2023-08-07T08:07:27;7.40;;;1.10;;
32521;SDS011;18963;51.504;5.316;2023-08-07T08:09:53;6.00;;;1.30;;
32521;SDS011;18963;51.504;5.316;2023-08-07T08:12:18;10.82;;;1.63;;
32521;SDS011;18963;51.504;5.316;2023-08-07T08:14:44;4.95;;;1.27;;
32521;SDS011;18963;51.504;5.316;2023-08-07T08:17:09;5.88;;;1.70;;
32521;SDS011;18963;51.504;5.316;2023-08-07T08:19:35;6.03;;;1.63;;
32521;SDS011;18963;51.504;5.316;2023-08-07T08:22:01;6.05;;;1.33;;
32521;SDS011;18963;51.504;5.316;2023-08-07T08:24:26;3.53;;;1.40;;
32521;SDS011;18963;51.504;5.316;2023-08-07T08:26:52;7.40;;;1.40;;
32521;SDS011;18963;51.504;5.316;2023-08-07T08:29:17;4.47;;;1.23;;
32521;SDS011;18963;51.504;5.316;2023-08-07T08:31:43;2.22;;;1.00;;
32521;SDS011;18963;51.504;5.316;2023-08-07T08:34:08;3.75;;;1.10;;
32521;SDS011;18963;51.504;5.316;2023-08-07T08:36:34;2.30;;;1.00;;
32521;SDS011;18963;51.504;5.316;2023-08-07T08:38:59;5.93;;;1.17;;
32521;SDS011;18963;51.504;5.316;2023-08-07T08:41:25;3.78;;;0.98;;
32521;SDS011;18963;51.504;5.316;2023-08-07T08:43:51;1.80;;;0.80;;
32521;SDS011;18963;51.504;5.316;2023-08-07T08:46:19;5.28;;;1.30;;
32521;SDS011;18963;51.504;5.316;2023-08-07T08:48:50;5.00;;;1.15;;
32521;SDS011;18963;51.504;5.316;2023-08-07T08:51:16;4.07;;;0.98;;
32521;SDS011;18963;51.504;5.316;2023-08-07T08:53:44;4.95;;;1.40;;
32521;SDS011;18963;51.504;5.316;2023-08-07T08:56:14;3.65;;;1.10;;
32521;SDS011;18963;51.504;5.316;2023-08-07T08:58:40;3.20;;;1.02;;
32521;SDS011;18963;51.504;5.316;2023-08-07T09:01:06;3.22;;;1.00;;
32521;SDS011;18963;51.504;5.316;2023-08-07T09:03:33;4.30;;;1.25;;
32521;SDS011;18963;51.504;5.316;2023-08-07T09:05:58;3.00;;;1.13;;
32521;SDS011;18963;51.504;5.316;2023-08-07T09:08:27;5.85;;;1.60;;
32521;SDS011;18963;51.504;5.316;2023-08-07T09:10:55;5.80;;;1.40;;
32521;SDS011;18963;51.504;5.316;2023-08-07T09:13:22;5.80;;;1.00;;
32521;SDS011;18963;51.504;5.316;2023-08-07T09:15:51;5.95;;;1.20;;
32521;SDS011;18963;51.504;5.316;2023-08-07T09:18:18;5.03;;;1.20;;
32521;SDS011;18963;51.504;5.316;2023-08-07T09:20:45;3.72;;;1.13;;
32521;SDS011;18963;51.504;5.316;2023-08-07T09:23:11;5.32;;;1.38;;
32521;SDS011;18963;51.504;5.316;2023-08-07T09:25:36;3.88;;;1.10;;
32521;SDS011;18963;51.504;5.316;2023-08-07T09:28:03;5.07;;;1.30;;
32521;SDS011;18963;51.504;5.316;2023-08-07T09:30:31;3.88;;;1.40;;
32521;SDS011;18963;51.504;5.316;2023-08-07T09:32:57;6.38;;;1.33;;
32521;SDS011;18963;51.504;5.316;2023-08-07T09:35:23;5.78;;;1.30;;
32521;SDS011;18963;51.504;5.316;2023-08-07T09:37:49;4.60;;;1.35;;
32521;SDS011;18963;51.504;5.316;2023-08-07T09:40:15;2.50;;;1.00;;
32521;SDS011;18963;51.504;5.316;2023-08-07T09:42:41;4.47;;;1.40;;
32521;SDS011;18963;51.504;5.316;2023-08-07T09:45:20;7.53;;;1.50;;
32521;SDS011;18963;51.504;5.316;2023-08-07T09:48:02;6.50;;;1.02;;
32521;SDS011;18963;51.504;5.316;2023-08-07T09:50:29;6.75;;;1.55;;
32521;SDS011;18963;51.504;5.316;2023-08-07T09:52:56;4.60;;;1.13;;
32521;SDS011;18963;51.504;5.316;2023-08-07T09:55:23;5.40;;;1.30;;
32521;SDS011;18963;51.504;5.316;2023-08-07T09:57:49;3.35;;;1.30;;
32521;SDS011;18963;51.504;5.316;2023-08-07T10:00:15;5.30;;;1.30;;
32521;SDS011;18963;51.504;5.316;2023-08-07T10:02:44;5.30;;;1.33;;
32521;SDS011;18963;51.504;5.316;2023-08-07T10:05:12;5.53;;;1.17;;
32521;SDS011;18963;51.504;5.316;2023-08-07T10:07:38;3.65;;;1.38;;
32521;SDS011;18963;51.504;5.316;2023-08-07T10:10:04;3.70;;;1.20;;
32521;SDS011;18963;51.504;5.316;2023-08-07T10:12:31;5.43;;;1.30;;
32521;SDS011;18963;51.504;5.316;2023-08-07T10:14:58;4.22;;;1.27;;
32521;SDS011;18963;51.504;5.316;2023-08-07T10:17:25;6.88;;;1.30;;
32521;SDS011;18963;51.504;5.316;2023-08-07T10:19:51;4.60;;;1.33;;
32521;SDS011;18963;51.504;5.316;2023-08-07T10:22:20;4.00;;;1.20;;
32521;SDS011;18963;51.504;5.316;2023-08-07T10:24:48;4.95;;;1.60;;
32521;SDS011;18963;51.504;5.316;2023-08-07T10:27:17;5.18;;;1.33;;
32521;SDS011;18963;51.504;5.316;2023-08-07T10:29:45;4.53;;;1.20;;
32521;SDS011;18963;51.504;5.316;2023-08-07T10:32:13;3.17;;;1.02;;
32521;SDS011;18963;51.504;5.316;2023-08-07T10:34:42;5.88;;;1.13;;
32521;SDS011;18963;51.504;5.316;2023-08-07T10:40:03;5.07;;;1.20;;
32521;SDS011;18963;51.504;5.316;2023-08-07T10:42:49;2.75;;;1.08;;
32521;SDS011;18963;51.504;5.316;2023-08-07T10:45:23;3.83;;;1.50;;
32521;SDS011;18963;51.504;5.316;2023-08-07T10:50:33;6.68;;;1.55;;
32521;SDS011;18963;51.504;5.316;2023-08-07T10:53:01;3.92;;;1.17;;
32521;SDS011;18963;51.504;5.316;2023-08-07T10:55:31;6.25;;;1.40;;
32521;SDS011;18963;51.504;5.316;2023-08-07T10:58:20;3.22;;;1.13;;
32521;SDS011;18963;51.504;5.316;2023-08-07T11:03:42;4.82;;;1.00;;
32521;SDS011;18963;51.504;5.316;2023-08-07T11:06:11;2.97;;;1.35;;
32521;SDS011;18963;51.504;5.316;2023-08-07T11:08:36;7.95;;;2.05;;
32521;SDS011;18963;51.504;5.316;2023-08-07T11:11:06;4.70;;;1.20;;
32521;SDS011;18963;51.504;5.316;2023-08-07T11:13:32;2.55;;;1.02;;
32521;SDS011;18963;51.504;5.316;2023-08-07T11:15:58;6.85;;;1.58;;
32521;SDS011;18963;51.504;5.316;2023-08-07T11:18:25;6.30;;;1.23;;
32521;SDS011;18963;51.504;5.316;2023-08-07T11:20:51;6.03;;;1.42;;
32521;SDS011;18963;51.504;5.316;2023-08-07T11:23:22;5.38;;;1.60;;
32521;SDS011;18963;51.504;5.316;2023-08-07T11:25:49;2.40;;;1.20;;
32521;SDS011;18963;51.504;5.316;2023-08-07T11:28:17;4.15;;;1.38;;
32521;SDS011;18963;51.504;5.316;2023-08-07T11:30:44;8.27;;;1.83;;
32521;SDS011;18963;51.504;5.316;2023-08-07T11:33:18;3.25;;;1.60;;
32521;SDS011;18963;51.504;5.316;2023-08-07T11:35:44;4.85;;;1.50;;
32521;SDS011;18963;51.504;5.316;2023-08-07T11:38:10;4.18;;;1.20;;
32521;SDS011;18963;51.504;5.316;2023-08-07T11:40:36;3.40;;;1.45;;
32521;SDS011;18963;51.504;5.316;2023-08-07T11:43:02;6.47;;;1.45;;
32521;SDS011;18963;51.504;5.316;2023-08-07T11:45:28;6.43;;;1.50;;
32521;SDS011;18963;51.504;5.316;2023-08-07T11:47:54;5.10;;;1.50;;
32521;SDS011;18963;51.504;5.316;2023-08-07T11:50:22;5.05;;;1.25;;
32521;SDS011;18963;51.504;5.316;2023-08-07T11:52:47;2.70;;;1.15;;
32521;SDS011;18963;51.504;5.316;2023-08-07T11:55:16;3.95;;;1.40;;
32521;SDS011;18963;51.504;5.316;2023-08-07T11:57:44;5.15;;;1.60;;
32521;SDS011;18963;51.504;5.316;2023-08-07T12:00:14;5.03;;;1.63;;
32521;SDS011;18963;51.504;5.316;2023-08-07T12:02:43;6.10;;;1.60;;
32521;SDS011;18963;51.504;5.316;2023-08-07T12:05:09;5.15;;;1.33;;
32521;SDS011;18963;51.504;5.316;2023-08-07T12:07:39;5.30;;;1.77;;
32521;SDS011;18963;51.504;5.316;2023-08-07T12:10:08;4.97;;;1.23;;
32521;SDS011;18963;51.504;5.316;2023-08-07T12:12:36;6.65;;;1.67;;
32521;SDS011;18963;51.504;5.316;2023-08-07T12:15:02;3.97;;;1.50;;
32521;SDS011;18963;51.504;5.316;2023-08-07T12:17:31;7.60;;;1.70;;
32521;SDS011;18963;51.504;5.316;2023-08-07T12:19:57;3.67;;;1.70;;
32521;SDS011;18963;51.504;5.316;2023-08-07T12:22:23;5.45;;;2.00;;
32521;SDS011;18963;51.504;5.316;2023-08-07T12:24:48;6.03;;;1.92;;
32521;SDS011;18963;51.504;5.316;2023-08-07T12:27:14;5.07;;;2.00;;
32521;SDS011;18963;51.504;5.316;2023-08-07T12:29:39;7.10;;;1.80;;
32521;SDS011;18963;51.504;5.316;2023-08-07T12:32:05;5.70;;;1.73;;
32521;SDS011;18963;51.504;5.316;2023-08-07T12:34:31;4.72;;;1.63;;
32521;SDS011;18963;51.504;5.316;2023-08-07T12:36:57;7.18;;;1.77;;
32521;SDS011;18963;51.504;5.316;2023-08-07T12:39:22;5.03;;;1.67;;
32521;SDS011;18963;51.504;5.316;2023-08-07T12:41:48;5.07;;;1.63;;
32521;SDS011;18963;51.504;5.316;2023-08-07T12:44:14;3.80;;;1.55;;
32521;SDS011;18963;51.504;5.316;2023-08-07T12:46:40;5.38;;;1.80;;
32521;SDS011;18963;51.504;5.316;2023-08-07T12:49:08;6.78;;;2.25;;
32521;SDS011;18963;51.504;5.316;2023-08-07T12:51:34;5.82;;;1.55;;
32521;SDS011;18963;51.504;5.316;2023-08-07T12:53:59;5.47;;;1.65;;
32521;SDS011;18963;51.504;5.316;2023-08-07T12:56:25;4.72;;;1.50;;
32521;SDS011;18963;51.504;5.316;2023-08-07T12:58:50;5.70;;;1.58;;
32521;SDS011;18963;51.504;5.316;2023-08-07T13:01:16;7.53;;;2.22;;
32521;SDS011;18963;51.504;5.316;2023-08-07T13:03:41;6.18;;;1.90;;
32521;SDS011;18963;51.504;5.316;2023-08-07T13:06:07;3.85;;;1.50;;
32521;SDS011;18963;51.504;5.316;2023-08-07T13:08:34;4.30;;;1.63;;
32521;SDS011;18963;51.504;5.316;2023-08-07T13:11:00;4.68;;;1.60;;
32521;SDS011;18963;51.504;5.316;2023-08-07T13:13:26;5.00;;;1.50;;
32521;SDS011;18963;51.504;5.316;2023-08-07T13:15:53;4.50;;;1.52;;
32521;SDS011;18963;51.504;5.316;2023-08-07T13:18:18;7.20;;;1.55;;
32521;SDS011;18963;51.504;5.316;2023-08-07T13:20:45;3.58;;;1.30;;
32521;SDS011;18963;51.504;5.316;2023-08-07T13:23:11;4.25;;;1.40;;
32521;SDS011;18963;51.504;5.316;2023-08-07T13:25:37;5.45;;;1.60;;
32521;SDS011;18963;51.504;5.316;2023-08-07T13:28:03;4.60;;;1.75;;
32521;SDS011;18963;51.504;5.316;2023-08-07T13:30:31;3.78;;;1.40;;
32521;SDS011;18963;51.504;5.316;2023-08-07T13:32:57;5.30;;;1.40;;
32521;SDS011;18963;51.504;5.316;2023-08-07T13:35:23;4.57;;;1.30;;
32521;SDS011;18963;51.504;5.316;2023-08-07T13:37:48;2.88;;;1.27;;
32521;SDS011;18963;51.504;5.316;2023-08-07T13:40:14;3.35;;;1.38;;
32521;SDS011;18963;51.504;5.316;2023-08-07T13:42:39;3.67;;;1.48;;
32521;SDS011;18963;51.504;5.316;2023-08-07T13:45:05;3.35;;;1.35;;
32521;SDS011;18963;51.504;5.316;2023-08-07T13:47:32;3.00;;;1.35;;
32521;SDS011;18963;51.504;5.316;2023-08-07T13:49:58;4.13;;;1.58;;
32521;SDS011;18963;51.504;5.316;2023-08-07T13:52:23;5.07;;;1.35;;
32521;SDS011;18963;51.504;5.316;2023-08-07T13:54:50;4.80;;;1.55;;
32521;SDS011;18963;51.504;5.316;2023-08-07T13:57:16;5.13;;;1.50;;
32521;SDS011;18963;51.504;5.316;2023-08-07T13:59:41;2.63;;;1.30;;
32521;SDS011;18963;51.504;5.316;2023-08-07T14:02:07;3.10;;;1.20;;
32521;SDS011;18963;51.504;5.316;2023-08-07T14:04:33;3.30;;;1.13;;
32521;SDS011;18963;51.504;5.316;2023-08-07T14:06:59;2.42;;;0.82;;
32521;SDS011;18963;51.504;5.316;2023-08-07T14:09:25;5.10;;;1.38;;
32521;SDS011;18963;51.504;5.316;2023-08-07T14:11:50;6.20;;;1.90;;
32521;SDS011;18963;51.504;5.316;2023-08-07T14:14:16;7.75;;;1.40;;
32521;SDS011;18963;51.504;5.316;2023-08-07T14:16:43;5.40;;;1.55;;
32521;SDS011;18963;51.504;5.316;2023-08-07T14:19:08;5.35;;;1.75;;
32521;SDS011;18963;51.504;5.316;2023-08-07T14:21:34;4.65;;;1.60;;
32521;SDS011;18963;51.504;5.316;2023-08-07T14:24:00;4.28;;;1.50;;
32521;SDS011;18963;51.504;5.316;2023-08-07T14:26:25;6.47;;;1.98;;
32521;SDS011;18963;51.504;5.316;2023-08-07T14:28:51;3.38;;;1.42;;
32521;SDS011;18963;51.504;5.316;2023-08-07T14:31:17;5.25;;;1.80;;
32521;SDS011;18963;51.504;5.316;2023-08-07T14:33:42;6.30;;;1.73;;
32521;SDS011;18963;51.504;5.316;2023-08-07T14:36:08;4.90;;;1.40;;
32521;SDS011;18963;51.504;5.316;2023-08-07T14:38:33;3.22;;;1.10;;
32521;SDS011;18963;51.504;5.316;2023-08-07T14:40:59;2.65;;;1.13;;
32521;SDS011;18963;51.504;5.316;2023-08-07T14:43:25;3.60;;;1.30;;
32521;SDS011;18963;51.504;5.316;2023-08-07T14:45:55;2.22;;;1.00;;
32521;SDS011;18963;51.504;5.316;2023-08-07T14:48:21;2.22;;;1.10;;
32521;SDS011;18963;51.504;5.316;2023-08-07T14:50:47;3.03;;;1.35;;
32521;SDS011;18963;51.504;5.316;2023-08-07T14:53:12;5.13;;;1.20;;
32521;SDS011;18963;51.504;5.316;2023-08-07T14:55:38;2.55;;;1.10;;